sensor_id;sensor_type;location;lat;lon;timestamp;temperature;humidity
22167;DHT22;11249;52.468;13.776;2022-12-17T00:00:06;-2.10;99.90
22167;DHT22;11249;52.468;13.776;2022-12-17T00:02:59;-2.10;99.90
22167;DHT22;11249;52.468;13.776;2022-12-17T00:05:52;-2.10;99.90
22167;DHT22;11249;52.468;13.776;2022-12-17T00:08:37;-2.10;99.90
22167;DHT22;11249;52.468;13.776;2022-12-17T00:11:29;-2.10;99.90
22167;DHT22;11249;52.468;13.776;2022-12-17T00:14:27;-2.10;99.90
22167;DHT22;11249;52.468;13.776;2022-12-17T00:17:13;-2.10;99.90
22167;DHT22;11249;52.468;13.776;2022-12-17T00:20:04;-2.00;99.90
22167;DHT22;11249;52.468;13.776;2022-12-17T00:22:58;-2.00;99.90
22167;DHT22;11249;52.468;13.776;2022-12-17T00:25:52;-2.00;99.90
22167;DHT22;11249;52.468;13.776;2022-12-17T00:28:51;-2.00;99.90
22167;DHT22;11249;52.468;13.776;2022-12-17T00:31:36;-2.00;99.90
22167;DHT22;11249;52.468;13.776;2022-12-17T00:34:28;-2.00;99.90
22167;DHT22;11249;52.468;13.776;2022-12-17T00:37:14;-2.00;99.90
22167;DHT22;11249;52.468;13.776;2022-12-17T00:40:07;-1.90;99.90
22167;DHT22;11249;52.468;13.776;2022-12-17T00:43:04;-1.90;99.90
22167;DHT22;11249;52.468;13.776;2022-12-17T00:45:57;-1.90;99.90
22167;DHT22;11249;52.468;13.776;2022-12-17T00:48:43;-1.90;99.90
22167;DHT22;11249;52.468;13.776;2022-12-17T00:51:35;-1.90;99.90
22167;DHT22;11249;52.468;13.776;2022-12-17T00:54:27;-1.90;99.90
22167;DHT22;11249;52.468;13.776;2022-12-17T00:57:13;-1.90;99.90
22167;DHT22;11249;52.468;13.776;2022-12-17T01:00:05;-1.90;99.90
22167;DHT22;11249;52.468;13.776;2022-12-17T01:02:50;-1.90;99.90
22167;DHT22;11249;52.468;13.776;2022-12-17T01:05:42;-1.90;99.90
22167;DHT22;11249;52.468;13.776;2022-12-17T01:08:27;-1.80;99.90
22167;DHT22;11249;52.468;13.776;2022-12-17T01:11:21;-1.90;99.90
22167;DHT22;11249;52.468;13.776;2022-12-17T01:14:13;-1.90;99.90
22167;DHT22;11249;52.468;13.776;2022-12-17T01:17:05;-1.80;99.90
22167;DHT22;11249;52.468;13.776;2022-12-17T01:19:51;-1.80;99.90
22167;DHT22;11249;52.468;13.776;2022-12-17T01:22:44;-1.80;99.90
22167;DHT22;11249;52.468;13.776;2022-12-17T01:25:29;-1.80;99.90
22167;DHT22;11249;52.468;13.776;2022-12-17T01:28:23;-1.80;99.90
22167;DHT22;11249;52.468;13.776;2022-12-17T01:31:08;-1.80;99.90
22167;DHT22;11249;52.468;13.776;2022-12-17T01:34:01;-1.80;99.90
22167;DHT22;11249;52.468;13.776;2022-12-17T01:36:46;-1.80;99.90
22167;DHT22;11249;52.468;13.776;2022-12-17T01:39:38;-1.70;99.90
22167;DHT22;11249;52.468;13.776;2022-12-17T01:42:41;-1.70;99.90
22167;DHT22;11249;52.468;13.776;2022-12-17T01:45:44;-1.70;99.90
22167;DHT22;11249;52.468;13.776;2022-12-17T01:48:40;-1.70;99.90
22167;DHT22;11249;52.468;13.776;2022-12-17T01:51:34;-1.70;99.90
22167;DHT22;11249;52.468;13.776;2022-12-17T01:54:19;-1.70;99.90
22167;DHT22;11249;52.468;13.776;2022-12-17T01:57:12;-1.70;99.90
22167;DHT22;11249;52.468;13.776;2022-12-17T02:00:05;-1.70;99.90
22167;DHT22;11249;52.468;13.776;2022-12-17T02:02:57;-1.70;99.90
22167;DHT22;11249;52.468;13.776;2022-12-17T02:06:11;-1.70;99.90
22167;DHT22;11249;52.468;13.776;2022-12-17T02:09:25;-1.70;99.90
22167;DHT22;11249;52.468;13.776;2022-12-17T02:12:36;-1.70;99.90
22167;DHT22;11249;52.468;13.776;2022-12-17T02:15:39;-1.60;99.90
22167;DHT22;11249;52.468;13.776;2022-12-17T02:18:39;-1.70;99.90
22167;DHT22;11249;52.468;13.776;2022-12-17T02:21:34;-1.70;99.90
22167;DHT22;11249;52.468;13.776;2022-12-17T02:24:37;-1.70;99.90
22167;DHT22;11249;52.468;13.776;2022-12-17T02:27:31;-1.70;99.90
22167;DHT22;11249;52.468;13.776;2022-12-17T02:30:22;-1.70;99.90
22167;DHT22;11249;52.468;13.776;2022-12-17T02:33:08;-1.70;99.90
22167;DHT22;11249;52.468;13.776;2022-12-17T02:36:05;-1.70;99.90
22167;DHT22;11249;52.468;13.776;2022-12-17T02:38:58;-1.70;99.90
22167;DHT22;11249;52.468;13.776;2022-12-17T02:41:47;-1.60;99.90
22167;DHT22;11249;52.468;13.776;2022-12-17T02:44:40;-1.60;99.90
22167;DHT22;11249;52.468;13.776;2022-12-17T02:47:26;-1.60;99.90
22167;DHT22;11249;52.468;13.776;2022-12-17T02:50:18;-1.60;99.90
22167;DHT22;11249;52.468;13.776;2022-12-17T02:53:11;-1.60;99.90
22167;DHT22;11249;52.468;13.776;2022-12-17T02:55:57;-1.50;99.90
22167;DHT22;11249;52.468;13.776;2022-12-17T02:58:48;-1.60;99.90
22167;DHT22;11249;52.468;13.776;2022-12-17T03:01:34;-1.60;99.90
22167;DHT22;11249;52.468;13.776;2022-12-17T03:04:25;-1.60;99.90
22167;DHT22;11249;52.468;13.776;2022-12-17T03:07:17;-1.60;99.90
22167;DHT22;11249;52.468;13.776;2022-12-17T03:10:16;-1.60;99.90
22167;DHT22;11249;52.468;13.776;2022-12-17T03:13:25;-1.60;99.90
22167;DHT22;11249;52.468;13.776;2022-12-17T03:16:17;-1.60;99.90
22167;DHT22;11249;52.468;13.776;2022-12-17T03:19:03;-1.60;99.90
22167;DHT22;11249;52.468;13.776;2022-12-17T03:21:55;-1.60;99.90
22167;DHT22;11249;52.468;13.776;2022-12-17T03:24:47;-1.60;99.90
22167;DHT22;11249;52.468;13.776;2022-12-17T03:27:33;-1.60;99.90
22167;DHT22;11249;52.468;13.776;2022-12-17T03:30:25;-1.60;99.90
22167;DHT22;11249;52.468;13.776;2022-12-17T03:33:14;-1.60;99.90
22167;DHT22;11249;52.468;13.776;2022-12-17T03:36:06;-1.60;99.90
22167;DHT22;11249;52.468;13.776;2022-12-17T03:38:52;-1.70;99.90
22167;DHT22;11249;52.468;13.776;2022-12-17T03:41:45;-1.60;99.90
22167;DHT22;11249;52.468;13.776;2022-12-17T03:44:37;-1.70;99.90
22167;DHT22;11249;52.468;13.776;2022-12-17T03:47:29;-1.70;99.90
22167;DHT22;11249;52.468;13.776;2022-12-17T03:50:15;-1.80;99.90
22167;DHT22;11249;52.468;13.776;2022-12-17T03:53:06;-1.80;99.90
22167;DHT22;11249;52.468;13.776;2022-12-17T03:55:52;-1.80;99.90
22167;DHT22;11249;52.468;13.776;2022-12-17T03:58:43;-1.80;99.90
22167;DHT22;11249;52.468;13.776;2022-12-17T04:01:29;-1.80;99.90
22167;DHT22;11249;52.468;13.776;2022-12-17T04:04:20;-1.80;99.90
22167;DHT22;11249;52.468;13.776;2022-12-17T04:07:06;-1.80;99.90
22167;DHT22;11249;52.468;13.776;2022-12-17T04:10:04;-1.80;99.90
22167;DHT22;11249;52.468;13.776;2022-12-17T04:13:03;-1.90;99.90
22167;DHT22;11249;52.468;13.776;2022-12-17T04:16:07;-1.90;99.90
22167;DHT22;11249;52.468;13.776;2022-12-17T04:18:52;-1.90;99.90
22167;DHT22;11249;52.468;13.776;2022-12-17T04:21:44;-1.90;99.90
22167;DHT22;11249;52.468;13.776;2022-12-17T04:24:29;-1.90;99.90
22167;DHT22;11249;52.468;13.776;2022-12-17T04:27:21;-1.90;99.90
22167;DHT22;11249;52.468;13.776;2022-12-17T04:30:07;-1.90;99.90
22167;DHT22;11249;52.468;13.776;2022-12-17T04:32:59;-1.90;99.90
22167;DHT22;11249;52.468;13.776;2022-12-17T04:35:45;-2.00;99.90
22167;DHT22;11249;52.468;13.776;2022-12-17T04:38:36;-2.00;99.90
22167;DHT22;11249;52.468;13.776;2022-12-17T04:41:22;-2.00;99.90
22167;DHT22;11249;52.468;13.776;2022-12-17T04:44:14;-2.10;99.90
22167;DHT22;11249;52.468;13.776;2022-12-17T04:47:00;-2.10;99.90
22167;DHT22;11249;52.468;13.776;2022-12-17T04:49:51;-2.10;99.90
22167;DHT22;11249;52.468;13.776;2022-12-17T04:52:36;-2.10;99.90
22167;DHT22;11249;52.468;13.776;2022-12-17T04:55:28;-2.10;99.90
22167;DHT22;11249;52.468;13.776;2022-12-17T04:58:14;-2.10;99.90
22167;DHT22;11249;52.468;13.776;2022-12-17T05:01:05;-2.10;99.90
22167;DHT22;11249;52.468;13.776;2022-12-17T05:03:57;-2.10;99.90
22167;DHT22;11249;52.468;13.776;2022-12-17T05:06:49;-2.10;99.90
22167;DHT22;11249;52.468;13.776;2022-12-17T05:09:35;-2.10;99.90
22167;DHT22;11249;52.468;13.776;2022-12-17T05:12:33;-2.10;99.90
22167;DHT22;11249;52.468;13.776;2022-12-17T05:15:19;-2.20;99.90
22167;DHT22;11249;52.468;13.776;2022-12-17T05:18:18;-2.20;99.90
22167;DHT22;11249;52.468;13.776;2022-12-17T05:21:10;-2.10;99.90
22167;DHT22;11249;52.468;13.776;2022-12-17T05:24:02;-2.20;99.90
22167;DHT22;11249;52.468;13.776;2022-12-17T05:26:48;-2.20;99.90
22167;DHT22;11249;52.468;13.776;2022-12-17T05:29:40;-2.30;99.90
22167;DHT22;11249;52.468;13.776;2022-12-17T05:32:32;-2.30;99.90
22167;DHT22;11249;52.468;13.776;2022-12-17T05:35:18;-2.30;99.90
22167;DHT22;11249;52.468;13.776;2022-12-17T05:38:09;-2.30;99.90
22167;DHT22;11249;52.468;13.776;2022-12-17T05:40:59;-2.30;99.90
22167;DHT22;11249;52.468;13.776;2022-12-17T05:44:04;-2.30;99.90
22167;DHT22;11249;52.468;13.776;2022-12-17T05:46:50;-2.30;99.90
22167;DHT22;11249;52.468;13.776;2022-12-17T05:49:42;-2.30;99.90
22167;DHT22;11249;52.468;13.776;2022-12-17T05:52:28;-2.20;99.90
22167;DHT22;11249;52.468;13.776;2022-12-17T05:55:19;-2.30;99.90
22167;DHT22;11249;52.468;13.776;2022-12-17T05:58:08;-2.30;99.90
22167;DHT22;11249;52.468;13.776;2022-12-17T06:01:06;-2.30;99.90
22167;DHT22;11249;52.468;13.776;2022-12-17T06:03:52;-2.30;99.90
22167;DHT22;11249;52.468;13.776;2022-12-17T06:06:43;-2.20;99.90
22167;DHT22;11249;52.468;13.776;2022-12-17T06:09:28;-2.30;99.90
22167;DHT22;11249;52.468;13.776;2022-12-17T06:12:27;-2.30;99.90
22167;DHT22;11249;52.468;13.776;2022-12-17T06:15:25;-2.40;99.90
22167;DHT22;11249;52.468;13.776;2022-12-17T06:18:11;-2.40;99.90
22167;DHT22;11249;52.468;13.776;2022-12-17T06:21:02;-2.40;99.90
22167;DHT22;11249;52.468;13.776;2022-12-17T06:23:54;-2.40;99.90
22167;DHT22;11249;52.468;13.776;2022-12-17T06:26:40;-2.40;99.90
22167;DHT22;11249;52.468;13.776;2022-12-17T06:29:51;-2.40;99.90
22167;DHT22;11249;52.468;13.776;2022-12-17T06:32:44;-2.40;99.90
22167;DHT22;11249;52.468;13.776;2022-12-17T06:35:35;-2.40;99.90
22167;DHT22;11249;52.468;13.776;2022-12-17T06:38:27;-2.50;99.90
22167;DHT22;11249;52.468;13.776;2022-12-17T06:41:13;-2.50;99.90
22167;DHT22;11249;52.468;13.776;2022-12-17T06:44:04;-2.50;99.90
22167;DHT22;11249;52.468;13.776;2022-12-17T06:46:50;-2.50;99.90
22167;DHT22;11249;52.468;13.776;2022-12-17T06:49:41;-2.60;99.90
22167;DHT22;11249;52.468;13.776;2022-12-17T06:52:27;-2.60;99.90
22167;DHT22;11249;52.468;13.776;2022-12-17T06:55:19;-2.60;99.90
22167;DHT22;11249;52.468;13.776;2022-12-17T06:58:11;-2.60;99.90
22167;DHT22;11249;52.468;13.776;2022-12-17T07:00:56;-2.50;99.90
22167;DHT22;11249;52.468;13.776;2022-12-17T07:03:54;-2.60;99.90
22167;DHT22;11249;52.468;13.776;2022-12-17T07:06:46;-2.60;99.90
22167;DHT22;11249;52.468;13.776;2022-12-17T07:09:31;-2.60;99.90
22167;DHT22;11249;52.468;13.776;2022-12-17T07:12:30;-2.60;99.90
22167;DHT22;11249;52.468;13.776;2022-12-17T07:15:22;-2.60;99.90
22167;DHT22;11249;52.468;13.776;2022-12-17T07:18:14;-2.60;99.90
22167;DHT22;11249;52.468;13.776;2022-12-17T07:21:06;-2.60;99.90
22167;DHT22;11249;52.468;13.776;2022-12-17T07:23:58;-2.60;99.90
22167;DHT22;11249;52.468;13.776;2022-12-17T07:26:50;-2.70;99.90
22167;DHT22;11249;52.468;13.776;2022-12-17T07:29:42;-2.70;99.90
22167;DHT22;11249;52.468;13.776;2022-12-17T07:32:28;-2.70;99.90
22167;DHT22;11249;52.468;13.776;2022-12-17T07:35:19;-2.70;99.90
22167;DHT22;11249;52.468;13.776;2022-12-17T07:38:05;-2.70;99.90
22167;DHT22;11249;52.468;13.776;2022-12-17T07:40:58;-2.70;99.90
22167;DHT22;11249;52.468;13.776;2022-12-17T07:43:43;-2.70;99.90
22167;DHT22;11249;52.468;13.776;2022-12-17T07:46:35;-2.60;99.90
22167;DHT22;11249;52.468;13.776;2022-12-17T07:49:27;-2.60;99.90
22167;DHT22;11249;52.468;13.776;2022-12-17T07:52:13;-2.50;99.90
22167;DHT22;11249;52.468;13.776;2022-12-17T07:55:05;-2.50;99.90
22167;DHT22;11249;52.468;13.776;2022-12-17T07:57:58;-2.50;99.90
22167;DHT22;11249;52.468;13.776;2022-12-17T08:00:50;-2.50;99.90
22167;DHT22;11249;52.468;13.776;2022-12-17T08:03:42;-2.50;99.90
22167;DHT22;11249;52.468;13.776;2022-12-17T08:06:34;-2.50;99.90
22167;DHT22;11249;52.468;13.776;2022-12-17T08:09:34;-2.50;99.90
22167;DHT22;11249;52.468;13.776;2022-12-17T08:12:26;-2.50;99.90
22167;DHT22;11249;52.468;13.776;2022-12-17T08:15:18;-2.50;99.90
22167;DHT22;11249;52.468;13.776;2022-12-17T08:18:10;-2.50;99.90
22167;DHT22;11249;52.468;13.776;2022-12-17T08:21:02;-2.50;99.90
22167;DHT22;11249;52.468;13.776;2022-12-17T08:23:54;-2.50;99.90
22167;DHT22;11249;52.468;13.776;2022-12-17T08:26:46;-2.50;99.90
22167;DHT22;11249;52.468;13.776;2022-12-17T08:29:32;-2.50;99.90
22167;DHT22;11249;52.468;13.776;2022-12-17T08:32:24;-2.50;99.90
22167;DHT22;11249;52.468;13.776;2022-12-17T08:35:20;-2.40;99.90
22167;DHT22;11249;52.468;13.776;2022-12-17T08:38:12;-2.50;99.90
22167;DHT22;11249;52.468;13.776;2022-12-17T08:41:00;-2.40;99.90
22167;DHT22;11249;52.468;13.776;2022-12-17T08:43:52;-2.50;99.90
22167;DHT22;11249;52.468;13.776;2022-12-17T08:46:44;-2.40;99.90
22167;DHT22;11249;52.468;13.776;2022-12-17T08:49:36;-2.40;99.90
22167;DHT22;11249;52.468;13.776;2022-12-17T08:52:28;-2.30;99.90
22167;DHT22;11249;52.468;13.776;2022-12-17T08:55:14;-2.30;99.90
22167;DHT22;11249;52.468;13.776;2022-12-17T08:58:06;-2.30;99.90
22167;DHT22;11249;52.468;13.776;2022-12-17T09:00:51;-2.30;99.90
22167;DHT22;11249;52.468;13.776;2022-12-17T09:03:44;-2.40;99.90
22167;DHT22;11249;52.468;13.776;2022-12-17T09:06:36;-2.30;99.90
22167;DHT22;11249;52.468;13.776;2022-12-17T09:09:21;-2.40;99.90
22167;DHT22;11249;52.468;13.776;2022-12-17T09:12:13;-2.30;99.90
22167;DHT22;11249;52.468;13.776;2022-12-17T09:15:05;-2.30;99.90
22167;DHT22;11249;52.468;13.776;2022-12-17T09:17:57;-2.30;99.90
22167;DHT22;11249;52.468;13.776;2022-12-17T09:20:42;-2.30;99.90
22167;DHT22;11249;52.468;13.776;2022-12-17T09:23:34;-2.20;99.90
22167;DHT22;11249;52.468;13.776;2022-12-17T09:26:19;-2.20;99.90
22167;DHT22;11249;52.468;13.776;2022-12-17T09:29:11;-2.10;99.90
22167;DHT22;11249;52.468;13.776;2022-12-17T09:31:57;-2.10;99.90
22167;DHT22;11249;52.468;13.776;2022-12-17T09:34:48;-2.10;99.90
22167;DHT22;11249;52.468;13.776;2022-12-17T09:37:34;-2.10;99.90
22167;DHT22;11249;52.468;13.776;2022-12-17T09:40:25;-2.20;99.90
22167;DHT22;11249;52.468;13.776;2022-12-17T09:43:38;-2.20;99.90
22167;DHT22;11249;52.468;13.776;2022-12-17T09:49:29;-2.20;99.90
22167;DHT22;11249;52.468;13.776;2022-12-17T09:52:39;-2.20;99.90
22167;DHT22;11249;52.468;13.776;2022-12-17T09:55:42;-2.10;99.90
22167;DHT22;11249;52.468;13.776;2022-12-17T09:58:38;-2.10;99.90
22167;DHT22;11249;52.468;13.776;2022-12-17T10:01:26;-2.10;99.90
22167;DHT22;11249;52.468;13.776;2022-12-17T10:04:39;-2.10;99.90
22167;DHT22;11249;52.468;13.776;2022-12-17T10:07:34;-2.10;99.90
22167;DHT22;11249;52.468;13.776;2022-12-17T10:10:30;-2.10;99.90
22167;DHT22;11249;52.468;13.776;2022-12-17T10:13:29;-2.20;99.90
22167;DHT22;11249;52.468;13.776;2022-12-17T10:19:31;-2.20;99.90
22167;DHT22;11249;52.468;13.776;2022-12-17T10:22:24;-2.20;99.90
22167;DHT22;11249;52.468;13.776;2022-12-17T10:25:20;-2.20;99.90
22167;DHT22;11249;52.468;13.776;2022-12-17T10:28:15;-2.20;99.90
22167;DHT22;11249;52.468;13.776;2022-12-17T10:31:06;-2.10;99.90
22167;DHT22;11249;52.468;13.776;2022-12-17T10:33:57;-2.10;99.90
22167;DHT22;11249;52.468;13.776;2022-12-17T10:36:48;-2.00;99.90
22167;DHT22;11249;52.468;13.776;2022-12-17T10:39:40;-1.90;99.90
22167;DHT22;11249;52.468;13.776;2022-12-17T10:42:29;-1.90;99.90
22167;DHT22;11249;52.468;13.776;2022-12-17T10:51:24;-1.90;99.90
22167;DHT22;11249;52.468;13.776;2022-12-17T10:54:25;-1.80;99.90
22167;DHT22;11249;52.468;13.776;2022-12-17T10:57:29;-1.80;99.90
22167;DHT22;11249;52.468;13.776;2022-12-17T11:03:46;-1.80;99.90
22167;DHT22;11249;52.468;13.776;2022-12-17T11:06:35;-1.80;99.90
22167;DHT22;11249;52.468;13.776;2022-12-17T11:12:15;-1.80;99.90
22167;DHT22;11249;52.468;13.776;2022-12-17T11:15:25;-1.80;99.90
22167;DHT22;11249;52.468;13.776;2022-12-17T11:18:23;-1.70;99.90
22167;DHT22;11249;52.468;13.776;2022-12-17T11:21:14;-1.70;99.90
22167;DHT22;11249;52.468;13.776;2022-12-17T11:24:16;-1.80;99.90
22167;DHT22;11249;52.468;13.776;2022-12-17T11:27:03;-1.70;99.90
22167;DHT22;11249;52.468;13.776;2022-12-17T11:29:58;-1.70;99.90
22167;DHT22;11249;52.468;13.776;2022-12-17T11:33:17;-1.80;99.90
22167;DHT22;11249;52.468;13.776;2022-12-17T11:36:20;-1.80;99.90
22167;DHT22;11249;52.468;13.776;2022-12-17T11:39:22;-1.80;99.90
22167;DHT22;11249;52.468;13.776;2022-12-17T11:42:39;-1.70;99.90
22167;DHT22;11249;52.468;13.776;2022-12-17T11:45:38;-1.60;99.90
22167;DHT22;11249;52.468;13.776;2022-12-17T11:48:47;-1.60;99.90
22167;DHT22;11249;52.468;13.776;2022-12-17T11:51:54;-1.50;99.90
22167;DHT22;11249;52.468;13.776;2022-12-17T11:55:10;-1.50;99.90
22167;DHT22;11249;52.468;13.776;2022-12-17T11:58:39;-1.50;99.90
22167;DHT22;11249;52.468;13.776;2022-12-17T12:02:44;-1.50;99.90
22167;DHT22;11249;52.468;13.776;2022-12-17T12:05:20;-1.60;99.90
22167;DHT22;11249;52.468;13.776;2022-12-17T12:15:07;-1.60;99.90
22167;DHT22;11249;52.468;13.776;2022-12-17T12:19:07;-1.50;99.90
22167;DHT22;11249;52.468;13.776;2022-12-17T12:21:36;-1.50;99.90
22167;DHT22;11249;52.468;13.776;2022-12-17T12:25:02;-1.50;99.90
22167;DHT22;11249;52.468;13.776;2022-12-17T12:31:34;-1.40;99.90
22167;DHT22;11249;52.468;13.776;2022-12-17T12:34:29;-1.40;99.90
22167;DHT22;11249;52.468;13.776;2022-12-17T12:37:23;-1.30;99.90
22167;DHT22;11249;52.468;13.776;2022-12-17T12:40:39;-1.30;99.90
22167;DHT22;11249;52.468;13.776;2022-12-17T12:43:32;-1.30;99.90
22167;DHT22;11249;52.468;13.776;2022-12-17T12:46:45;-1.30;99.90
22167;DHT22;11249;52.468;13.776;2022-12-17T12:49:49;-1.20;99.90
22167;DHT22;11249;52.468;13.776;2022-12-17T12:52:43;-1.20;99.90
22167;DHT22;11249;52.468;13.776;2022-12-17T12:55:39;-1.20;99.90
22167;DHT22;11249;52.468;13.776;2022-12-17T12:58:33;-1.20;99.90
22167;DHT22;11249;52.468;13.776;2022-12-17T13:01:19;-1.20;99.90
22167;DHT22;11249;52.468;13.776;2022-12-17T13:04:32;-1.30;99.90
22167;DHT22;11249;52.468;13.776;2022-12-17T13:07:27;-1.20;99.90
22167;DHT22;11249;52.468;13.776;2022-12-17T13:09:56;-1.20;99.90
22167;DHT22;11249;52.468;13.776;2022-12-17T13:12:46;-1.20;99.90
22167;DHT22;11249;52.468;13.776;2022-12-17T13:15:40;-1.30;99.90
22167;DHT22;11249;52.468;13.776;2022-12-17T13:18:35;-1.30;99.90
22167;DHT22;11249;52.468;13.776;2022-12-17T13:23:42;-1.30;99.90
22167;DHT22;11249;52.468;13.776;2022-12-17T13:26:21;-1.30;99.90
22167;DHT22;11249;52.468;13.776;2022-12-17T13:32:14;-1.20;99.90
22167;DHT22;11249;52.468;13.776;2022-12-17T13:38:00;-1.20;99.90
22167;DHT22;11249;52.468;13.776;2022-12-17T13:41:07;-1.20;99.90
22167;DHT22;11249;52.468;13.776;2022-12-17T13:43:58;-1.30;99.90
22167;DHT22;11249;52.468;13.776;2022-12-17T13:46:40;-1.30;99.90
22167;DHT22;11249;52.468;13.776;2022-12-17T13:49:23;-1.30;99.90
22167;DHT22;11249;52.468;13.776;2022-12-17T13:52:19;-1.30;99.90
22167;DHT22;11249;52.468;13.776;2022-12-17T13:54:46;-1.30;99.90
22167;DHT22;11249;52.468;13.776;2022-12-17T13:57:22;-1.30;99.90
22167;DHT22;11249;52.468;13.776;2022-12-17T13:59:51;-1.30;99.90
22167;DHT22;11249;52.468;13.776;2022-12-17T14:02:32;-1.30;99.90
22167;DHT22;11249;52.468;13.776;2022-12-17T14:05:24;-1.20;99.90
22167;DHT22;11249;52.468;13.776;2022-12-17T14:08:00;-1.20;99.90
22167;DHT22;11249;52.468;13.776;2022-12-17T14:10:27;-1.30;99.90
22167;DHT22;11249;52.468;13.776;2022-12-17T14:13:06;-1.20;99.90
22167;DHT22;11249;52.468;13.776;2022-12-17T14:15:46;-1.30;99.90
22167;DHT22;11249;52.468;13.776;2022-12-17T14:18:15;-1.30;99.90
22167;DHT22;11249;52.468;13.776;2022-12-17T14:20:52;-1.40;99.90
22167;DHT22;11249;52.468;13.776;2022-12-17T14:23:25;-1.40;99.90
22167;DHT22;11249;52.468;13.776;2022-12-17T14:26:00;-1.40;99.90
22167;DHT22;11249;52.468;13.776;2022-12-17T14:28:36;-1.40;99.90
22167;DHT22;11249;52.468;13.776;2022-12-17T14:31:24;-1.50;99.90
22167;DHT22;11249;52.468;13.776;2022-12-17T14:34:05;-1.50;99.90
22167;DHT22;11249;52.468;13.776;2022-12-17T14:36:39;-1.50;99.90
22167;DHT22;11249;52.468;13.776;2022-12-17T14:39:23;-1.50;99.90
22167;DHT22;11249;52.468;13.776;2022-12-17T14:42:05;-1.50;99.90
22167;DHT22;11249;52.468;13.776;2022-12-17T14:47:35;-1.50;99.90
22167;DHT22;11249;52.468;13.776;2022-12-17T14:52:48;-1.60;99.90
22167;DHT22;11249;52.468;13.776;2022-12-17T14:56:16;-1.70;99.90
22167;DHT22;11249;52.468;13.776;2022-12-17T14:58:23;-1.70;99.90
22167;DHT22;11249;52.468;13.776;2022-12-17T15:01:11;-1.70;99.90
22167;DHT22;11249;52.468;13.776;2022-12-17T15:03:45;-1.70;99.90
22167;DHT22;11249;52.468;13.776;2022-12-17T15:06:16;-1.70;99.90
22167;DHT22;11249;52.468;13.776;2022-12-17T15:08:50;-1.70;99.90
22167;DHT22;11249;52.468;13.776;2022-12-17T15:11:20;-1.70;99.90
22167;DHT22;11249;52.468;13.776;2022-12-17T15:14:07;-1.80;99.90
22167;DHT22;11249;52.468;13.776;2022-12-17T15:16:40;-1.90;99.90
22167;DHT22;11249;52.468;13.776;2022-12-17T15:19:13;-1.90;99.90
22167;DHT22;11249;52.468;13.776;2022-12-17T15:21:47;-1.90;99.90
22167;DHT22;11249;52.468;13.776;2022-12-17T15:24:19;-1.80;99.90
22167;DHT22;11249;52.468;13.776;2022-12-17T15:26:47;-1.90;99.90
22167;DHT22;11249;52.468;13.776;2022-12-17T15:29:20;-1.90;99.90
22167;DHT22;11249;52.468;13.776;2022-12-17T15:31:47;-1.90;99.90
22167;DHT22;11249;52.468;13.776;2022-12-17T15:34:14;-1.80;99.90
22167;DHT22;11249;52.468;13.776;2022-12-17T15:36:47;-1.80;99.90
22167;DHT22;11249;52.468;13.776;2022-12-17T15:39:14;-1.80;99.90
22167;DHT22;11249;52.468;13.776;2022-12-17T15:41:48;-1.80;99.90
22167;DHT22;11249;52.468;13.776;2022-12-17T15:44:40;-1.80;99.90
22167;DHT22;11249;52.468;13.776;2022-12-17T15:47:07;-1.80;99.90
22167;DHT22;11249;52.468;13.776;2022-12-17T15:49:34;-1.80;99.90
22167;DHT22;11249;52.468;13.776;2022-12-17T15:52:07;-1.80;99.90
22167;DHT22;11249;52.468;13.776;2022-12-17T15:54:34;-1.90;99.90
22167;DHT22;11249;52.468;13.776;2022-12-17T15:57:00;-2.00;99.90
22167;DHT22;11249;52.468;13.776;2022-12-17T15:59:40;-2.00;99.90
22167;DHT22;11249;52.468;13.776;2022-12-17T16:02:13;-2.10;99.90
22167;DHT22;11249;52.468;13.776;2022-12-17T16:04:40;-2.10;99.90
22167;DHT22;11249;52.468;13.776;2022-12-17T16:07:07;-2.20;99.90
22167;DHT22;11249;52.468;13.776;2022-12-17T16:09:40;-2.20;99.90
22167;DHT22;11249;52.468;13.776;2022-12-17T16:12:07;-2.30;99.90
22167;DHT22;11249;52.468;13.776;2022-12-17T16:14:47;-2.30;99.90
22167;DHT22;11249;52.468;13.776;2022-12-17T16:17:20;-2.30;99.90
22167;DHT22;11249;52.468;13.776;2022-12-17T16:19:47;-2.30;99.90
22167;DHT22;11249;52.468;13.776;2022-12-17T16:22:20;-2.30;99.90
22167;DHT22;11249;52.468;13.776;2022-12-17T16:25:00;-2.20;99.90
22167;DHT22;11249;52.468;13.776;2022-12-17T16:27:27;-2.30;99.90
22167;DHT22;11249;52.468;13.776;2022-12-17T16:29:53;-2.30;99.90
22167;DHT22;11249;52.468;13.776;2022-12-17T16:32:26;-2.20;99.90
22167;DHT22;11249;52.468;13.776;2022-12-17T16:35:01;-2.20;99.90
22167;DHT22;11249;52.468;13.776;2022-12-17T16:37:35;-2.20;99.90
22167;DHT22;11249;52.468;13.776;2022-12-17T16:40:02;-2.20;99.90
22167;DHT22;11249;52.468;13.776;2022-12-17T16:42:29;-2.20;99.90
22167;DHT22;11249;52.468;13.776;2022-12-17T16:45:02;-2.10;99.90
22167;DHT22;11249;52.468;13.776;2022-12-17T16:47:39;-2.10;99.90
22167;DHT22;11249;52.468;13.776;2022-12-17T16:50:07;-2.10;99.90
22167;DHT22;11249;52.468;13.776;2022-12-17T16:52:40;-2.10;99.90
22167;DHT22;11249;52.468;13.776;2022-12-17T16:55:13;-2.10;99.90
22167;DHT22;11249;52.468;13.776;2022-12-17T16:57:40;-2.10;99.90
22167;DHT22;11249;52.468;13.776;2022-12-17T17:00:07;-2.10;99.90
22167;DHT22;11249;52.468;13.776;2022-12-17T17:02:40;-2.20;99.90
22167;DHT22;11249;52.468;13.776;2022-12-17T17:05:18;-2.20;99.90
22167;DHT22;11249;52.468;13.776;2022-12-17T17:07:52;-2.20;99.90
22167;DHT22;11249;52.468;13.776;2022-12-17T17:10:19;-2.30;99.90
22167;DHT22;11249;52.468;13.776;2022-12-17T17:12:59;-2.30;99.90
22167;DHT22;11249;52.468;13.776;2022-12-17T17:15:26;-2.30;99.90
22167;DHT22;11249;52.468;13.776;2022-12-17T17:17:59;-2.30;99.90
22167;DHT22;11249;52.468;13.776;2022-12-17T17:20:27;-2.30;99.90
22167;DHT22;11249;52.468;13.776;2022-12-17T17:23:03;-2.30;99.90
22167;DHT22;11249;52.468;13.776;2022-12-17T17:25:30;-2.30;99.90
22167;DHT22;11249;52.468;13.776;2022-12-17T17:28:23;-2.30;99.90
22167;DHT22;11249;52.468;13.776;2022-12-17T17:30:52;-2.40;99.90
22167;DHT22;11249;52.468;13.776;2022-12-17T17:33:32;-2.50;99.90
22167;DHT22;11249;52.468;13.776;2022-12-17T17:36:10;-2.50;99.90
22167;DHT22;11249;52.468;13.776;2022-12-17T17:38:44;-2.50;99.90
22167;DHT22;11249;52.468;13.776;2022-12-17T17:41:14;-2.50;99.90
22167;DHT22;11249;52.468;13.776;2022-12-17T17:43:56;-2.50;99.90
22167;DHT22;11249;52.468;13.776;2022-12-17T17:46:24;-2.50;99.90
22167;DHT22;11249;52.468;13.776;2022-12-17T17:49:00;-2.50;99.90
22167;DHT22;11249;52.468;13.776;2022-12-17T17:51:29;-2.50;99.90
22167;DHT22;11249;52.468;13.776;2022-12-17T17:54:24;-2.60;99.90
22167;DHT22;11249;52.468;13.776;2022-12-17T17:56:51;-2.70;99.90
22167;DHT22;11249;52.468;13.776;2022-12-17T17:59:24;-2.70;99.90
22167;DHT22;11249;52.468;13.776;2022-12-17T18:01:59;-2.70;99.90
22167;DHT22;11249;52.468;13.776;2022-12-17T18:04:32;-2.70;99.90
22167;DHT22;11249;52.468;13.776;2022-12-17T18:06:59;-2.70;99.90